Flight Track Log - Related Links

Times and Time Zones

All times are in EDT time to prevent confusion due to time zone crossing. See the UAL1519 flight status page for this flight to view local times or setup timezone preferences in your user account.

Time Position Orientation Groundspeed Altitude Reporting Facility
EDT Latitude Longitude Course Direction KTS MPH feet Rate Location/Type
Sat 09:39:32 AM 40.6333 -74.2000 110° East 199 229 2,200  Level New York TRACON
Sat 09:40:32 AM 40.5833 -74.2500 217° Southwest 253 291 5,000 1,900 Climbing New York TRACON
Sat 09:41:32 AM 40.5167 -74.2667 191° South 283 326 6,000 366 Climbing New York TRACON
Sat 09:43:00 AM 40.0859 -74.1500 180° South  Level FlightAware Approximate
Sat 09:43:16 AM 40.3950 -74.2019 158° South 277 319 6,000  Level New York Center
Sat 09:44:00 AM 40.0439 -74.0045 123° Southeast  Level FlightAware Approximate
Sat 09:44:16 AM 40.3211 -74.1683 161° South 277 319 8,200  Level New York Center
Sat 09:45:00 AM 39.9971 -73.8503 110° East  Level FlightAware Approximate
Sat 09:45:17 AM 40.2378 -74.1642 178° South 298 343 10,900  Level New York Center
Sat 09:46:15 AM 40.1461 -74.1653 181° South 322 371 13,500 2,542 Climbing New York Center
Sat 09:47:15 AM 40.0694 -74.0800 140° Southeast 352 405 15,900 2,083 Climbing New York Center
Sat 09:48:16 AM 40.0350 -73.9592 110° East 364 419 17,700 1,934 Climbing New York Center
Sat 09:49:16 AM 40.0269 -73.7933 94° East 406 467 19,800 2,168 Climbing New York Center
Sat 09:50:15 AM 40.0247 -73.6333 91° East 418 481 22,000 1,563 Climbing New York Center
Sat 09:51:15 AM 40.0244 -73.4708 90° East 428 493 22,900 443 Climbing New York Center
Sat 09:52:17 AM 40.0217 -73.3108 91° East 442 509 22,900 49 Level New York Center
Sat 09:53:17 AM 40.0231 -73.1481 89° East 442 509 23,000 559 Climbing New York Center
Sat 09:54:15 AM 40.0222 -72.9828 90° East 442 509 24,000 1,475 Climbing New York Center
Sat 09:55:15 AM 40.0003 -72.8194 100° East 448 516 25,900 1,750 Climbing New York Center
Sat 09:56:15 AM 39.9214 -72.6792 126° Southeast 448 516 27,500 1,450 Climbing New York Center
Sat 09:57:15 AM 39.8444 -72.5311 124° Southeast 471 542 28,800 1,377 Climbing New York Center
Sat 09:58:17 AM 39.7633 -72.3778 125° Southeast 496 571 30,300 1,700 Climbing New York Center
Sat 09:59:15 AM 39.6819 -72.2247 125° Southeast 501 577 32,200 1,750 Climbing New York Center
Sat 10:00:17 AM 39.6025 -72.0750 125° Southeast 506 582 33,800 1,400 Climbing New York Center
Sat 10:01:15 AM 39.5228 -71.9281 125° Southeast 501 577 35,000 610 Climbing New York Center
Sat 10:02:15 AM 39.4450 -71.7789 124° Southeast 501 577 35,000 -50 Level New York Center
Sat 10:03:15 AM 39.3942 -71.6142 112° Southeast 491 565 34,900  Descending New York Center
Sat 10:04:16 AM 39.2867 -71.5031 141° Southeast 482 555 35,000  Climbing New York Center
Sat 10:05:17 AM 39.1642 -71.4214 153° Southeast 480 552 34,900  Descending New York Center
Sat 10:06:16 AM 39.0436 -71.3344 151° Southeast 490 564 35,000  Climbing New York Center
Sat 10:07:15 AM 38.9231 -71.2456 150° Southeast 490 564 34,900 -50 Descending New York Center
Sat 10:08:17 AM 38.8047 -71.1619 151° Southeast 490 564 34,900  Level New York Center
Sat 10:09:17 AM 38.6839 -71.0814 153° Southeast 490 564 34,900  Level New York Center
Sat 10:10:18 AM 38.5675 -70.9933 149° Southeast 490 564 34,900 50 Level New York Center
Sat 10:11:16 AM 38.4467 -70.9133 153° Southeast 495 570 35,000 50 Climbing New York Center
Sat 10:12:17 AM 38.3342 -70.8231 148° Southeast 490 564 35,000  Level New York Center
Sat 10:13:15 AM 38.2092 -70.7489 155° Southeast 485 558 35,000 -50 Level New York Center
Sat 10:14:16 AM 38.0986 -70.6589 147° Southeast 480 552 34,900  Descending New York Center
Sat 10:15:15 AM 37.9817 -70.5775 151° Southeast 480 552 35,000  Climbing New York Center
Sat 10:16:17 AM 37.8750 -70.5092 153° Southeast 475 547 34,900  Descending New York Center
Sat 10:17:15 AM 37.7708 -70.4517 156° South 475 547 35,000 50 Climbing New York Center
Sat 10:18:17 AM 37.6244 -70.3553 152° Southeast 455 524 35,000  Level New York Center
Sat 10:20:00 AM 37.4447 -70.2246 155° Southeast  Level FlightAware Approximate
Sat 10:27:00 AM 36.6564 -69.7513 154° Southeast  Level FlightAware Approximate
Sat 10:28:00 AM 36.5438 -69.6839 154° Southeast  Level FlightAware Approximate
Sat 10:29:00 AM 36.4312 -69.6168 154° Southeast  Level FlightAware Approximate
Sat 10:30:00 AM 36.3186 -69.5498 154° Southeast  Level FlightAware Approximate
Sat 10:31:00 AM 36.2059 -69.4830 154° Southeast  Level FlightAware Approximate
Sat 10:31:57 AM 36.1667 -69.4500 168° South 472 543 35,000  Level New York Oceanic (ODAPS)
Sat 10:32:00 AM 36.0885 -69.4335 168° South  Level FlightAware Approximate
Sat 10:33:00 AM 35.9664 -69.4009 168° South  Level FlightAware Approximate
Sat 10:34:00 AM 35.8443 -69.3684 168° South  Level FlightAware Approximate
Sat 10:35:00 AM 35.7223 -69.3360 168° South  Level FlightAware Approximate
Sat 10:36:00 AM 35.6002 -69.3036 168° South  Level FlightAware Approximate
Sat 10:37:00 AM 35.4781 -69.2714 168° South  Level FlightAware Approximate
Sat 10:38:00 AM 35.2658 -69.2091 168° South 472 543 35,000  Level FlightAware Transoceanic
Sat 10:39:00 AM 35.1371 -69.1751 168° South 472 543 35,000  Level FlightAware Transoceanic
Sat 10:40:00 AM 35.0083 -69.1413 168° South 472 543 35,000  Level FlightAware Transoceanic
Sat 10:41:00 AM 34.8796 -69.1075 168° South 472 543 35,000  Level FlightAware Transoceanic
Sat 10:42:00 AM 34.7508 -69.0739 168° South 472 543 35,000  Level FlightAware Transoceanic
Sat 10:43:00 AM 34.6221 -69.0403 168° South 472 543 35,000  Level FlightAware Transoceanic
Sat 10:44:00 AM 34.4933 -69.0069 168° South 472 543 35,000  Level FlightAware Transoceanic
Sat 10:45:00 AM 34.3645 -68.9735 168° South 472 543 35,000  Level FlightAware Transoceanic
Sat 10:46:00 AM 34.2357 -68.9403 168° South 472 543 35,000  Level FlightAware Transoceanic
Sat 10:47:00 AM 34.1069 -68.9071 168° South 472 543 35,000  Level FlightAware Transoceanic
Sat 10:48:00 AM 33.9781 -68.8741 168° South 472 543 35,000  Level FlightAware Transoceanic
Sat 10:49:00 AM 33.8492 -68.8412 168° South 472 543 35,000  Level FlightAware Transoceanic
Sat 10:50:00 AM 33.7204 -68.8083 168° South 472 543 35,000  Level FlightAware Transoceanic
Sat 10:51:00 AM 33.5916 -68.7756 168° South 472 543 35,000  Level FlightAware Transoceanic
Sat 10:52:00 AM 33.4627 -68.7429 168° South 472 543 35,000  Level FlightAware Transoceanic
Sat 10:53:00 AM 33.3339 -68.7104 168° South 472 543 35,000  Level FlightAware Transoceanic
Sat 10:54:00 AM 33.2050 -68.6779 168° South 472 543 35,000  Level FlightAware Transoceanic
Sat 10:55:00 AM 33.0761 -68.6456 168° South 472 543 35,000  Level FlightAware Transoceanic
Sat 10:56:00 AM 32.9472 -68.6133 168° South 472 543 35,000  Level FlightAware Transoceanic
Sat 10:57:00 AM 32.8183 -68.5812 168° South 472 543 35,000  Level FlightAware Transoceanic
Sat 10:58:00 AM 32.6894 -68.5491 168° South 472 543 35,000  Level FlightAware Transoceanic
Sat 10:59:00 AM 32.5605 -68.5171 168° South 472 543 35,000  Level FlightAware Transoceanic
Sat 11:00:00 AM 32.4316 -68.4852 168° South 472 543 35,000  Level FlightAware Transoceanic
Sat 11:01:00 AM 32.3027 -68.4534 168° South 472 543 35,000  Level FlightAware Transoceanic
Sat 11:02:00 AM 32.1738 -68.4217 168° South 472 543 35,000  Level FlightAware Transoceanic
Sat 11:03:00 AM 32.0448 -68.3901 168° South 472 543 35,000  Level FlightAware Transoceanic
Sat 11:04:00 AM 31.9159 -68.3586 168° South 472 543 35,000  Level FlightAware Transoceanic
Sat 11:05:00 AM 31.7869 -68.3271 168° South 472 543 35,000  Level FlightAware Transoceanic
Sat 11:06:00 AM 31.6579 -68.2958 168° South 472 543 35,000  Level FlightAware Transoceanic
Sat 11:07:00 AM 31.5290 -68.2645 168° South 472 543 35,000  Level FlightAware Transoceanic
Sat 11:08:00 AM 31.4000 -68.2333 169° South 472 543 35,000  Level FlightAware Transoceanic
Sat 11:09:00 AM 31.2731 -68.2032 169° South 472 543 35,000  Level FlightAware Transoceanic
Sat 11:10:00 AM 31.1463 -68.1731 169° South 472 543 35,000  Level FlightAware Transoceanic
Sat 11:11:00 AM 31.0194 -68.1431 169° South 472 543 35,000  Level FlightAware Transoceanic
Sat 11:11:19 AM 31.4000 -68.2333 169° South 464 534 35,000  Level New York Oceanic (ODAPS)
Sat 11:12:00 AM 30.8925 -68.1132 169° South 472 543 35,000  Level FlightAware Transoceanic
Sat 11:13:00 AM 30.7657 -68.0834 169° South 472 543 35,000  Level FlightAware Transoceanic
Sat 11:14:00 AM 30.6388 -68.0536 169° South 472 543 35,000  Level FlightAware Transoceanic
Sat 11:15:00 AM 30.5119 -68.0239 169° South 472 543 35,000  Level FlightAware Transoceanic
Sat 11:16:00 AM 30.3850 -67.9943 169° South 472 543 35,000  Level FlightAware Transoceanic
Sat 11:17:00 AM 30.2581 -67.9648 169° South 464 534 35,000  Level FlightAware Transoceanic
Sat 11:18:00 AM 30.1311 -67.9353 169° South 464 534 35,000  Level FlightAware Transoceanic
Sat 11:19:00 AM 30.0042 -67.9060 169° South 464 534 35,000  Level FlightAware Transoceanic
Sat 11:20:00 AM 29.8773 -67.8767 169° South 464 534 35,000  Level FlightAware Transoceanic
Sat 11:21:00 AM 29.7504 -67.8475 169° South 464 534 35,000  Level FlightAware Transoceanic
Sat 11:22:00 AM 29.6234 -67.8183 169° South 464 534 35,000  Level FlightAware Transoceanic
Sat 11:23:00 AM 29.4965 -67.7892 169° South 464 534 35,000  Level FlightAware Transoceanic
Sat 11:24:00 AM 29.3695 -67.7602 169° South 464 534 35,000  Level FlightAware Transoceanic
Sat 11:25:00 AM 29.2426 -67.7313 169° South 464 534 35,000  Level FlightAware Transoceanic
Sat 11:26:00 AM 29.1156 -67.7024 169° South 464 534 35,000  Level FlightAware Transoceanic
Sat 11:27:00 AM 28.9886 -67.6737 169° South 464 534 35,000  Level FlightAware Transoceanic
Sat 11:28:00 AM 28.8617 -67.6449 169° South 464 534 35,000  Level FlightAware Transoceanic
Sat 11:29:00 AM 28.7347 -67.6163 169° South 464 534 35,000  Level FlightAware Transoceanic
Sat 11:30:00 AM 28.6077 -67.5877 169° South 464 534 35,000  Level FlightAware Transoceanic
Sat 11:31:00 AM 28.4807 -67.5592 169° South 464 534 35,000  Level FlightAware Transoceanic
Sat 11:32:00 AM 28.3537 -67.5307 169° South 464 534 35,000  Level FlightAware Transoceanic
Sat 11:33:00 AM 28.2267 -67.5024 169° South 464 534 35,000  Level FlightAware Transoceanic
Sat 11:34:00 AM 28.0996 -67.4741 169° South 464 534 35,000  Level FlightAware Transoceanic
Sat 11:35:00 AM 27.9726 -67.4458 169° South 464 534 35,000  Level FlightAware Transoceanic
Sat 11:36:00 AM 27.8456 -67.4177 169° South 464 534 35,000  Level FlightAware Transoceanic
Sat 11:37:00 AM 27.7186 -67.3896 169° South 464 534 35,000  Level FlightAware Transoceanic
Sat 11:38:00 AM 27.5915 -67.3615 169° South 464 534 35,000  Level FlightAware Transoceanic
Sat 11:39:00 AM 27.4645 -67.3335 169° South 464 534 35,000  Level FlightAware Transoceanic
Sat 11:40:00 AM 27.3375 -67.3056 169° South 464 534 35,000  Level FlightAware Transoceanic
Sat 11:41:00 AM 27.2104 -67.2778 169° South 464 534 35,000  Level FlightAware Transoceanic
Sat 11:42:00 AM 27.0833 -67.2500 158° South 464 534 35,000  Level FlightAware Transoceanic
Sat 11:43:00 AM 26.9591 -67.1949 158° South 464 534 35,000  Level FlightAware Transoceanic
Sat 11:44:00 AM 26.8349 -67.1400 158° South 464 534 35,000  Level FlightAware Transoceanic
Sat 11:44:15 AM 27.0833 -67.2500 158° South 467 537 35,000  Level New York Oceanic (ODAPS)
Sat 11:45:00 AM 26.7107 -67.0851 159° South 464 534 35,000  Level FlightAware Transoceanic
Sat 11:46:00 AM 26.5864 -67.0304 159° South 464 534 35,000  Level FlightAware Transoceanic
Sat 11:47:00 AM 26.4621 -66.9758 159° South 464 534 35,000  Level FlightAware Transoceanic
Sat 11:48:00 AM 26.3378 -66.9214 159° South 464 534 35,000  Level FlightAware Transoceanic
Sat 11:49:00 AM 26.2135 -66.8670 159° South 464 534 35,000  Level FlightAware Transoceanic
Sat 11:50:00 AM 26.2347 -66.8763 159° South 467 537 35,000  Level FlightAware Transoceanic
Sat 11:51:00 AM 26.1134 -66.8233 159° South 467 537 35,000  Level FlightAware Transoceanic
Sat 11:52:00 AM 25.9920 -66.7705 159° South 467 537 35,000  Level FlightAware Transoceanic
Sat 11:53:00 AM 25.8707 -66.7178 159° South 467 537 35,000  Level FlightAware Transoceanic
Sat 11:54:00 AM 25.7493 -66.6652 159° South 467 537 35,000  Level FlightAware Transoceanic
Sat 11:55:00 AM 25.6279 -66.6127 159° South 467 537 35,000  Level FlightAware Transoceanic
Sat 11:56:00 AM 25.5065 -66.5603 159° South 467 537 35,000  Level FlightAware Transoceanic
Sat 11:57:00 AM 25.3851 -66.5080 159° South 467 537 35,000  Level FlightAware Transoceanic
Sat 11:58:00 AM 25.2636 -66.4558 159° South 467 537 35,000  Level FlightAware Transoceanic
Sat 11:59:00 AM 25.1422 -66.4037 159° South 467 537 35,000  Level FlightAware Transoceanic
Sat 12:00:00 PM 25.0207 -66.3517 159° South 467 537 35,000  Level FlightAware Transoceanic
Sat 12:01:00 PM 24.8992 -66.2998 159° South 467 537 35,000  Level FlightAware Transoceanic
Sat 12:02:00 PM 24.7777 -66.2481 159° South 467 537 35,000  Level FlightAware Transoceanic
Sat 12:03:00 PM 24.6561 -66.1964 159° South 467 537 35,000  Level FlightAware Transoceanic
Sat 12:04:00 PM 24.5346 -66.1448 159° South 467 537 35,000  Level FlightAware Transoceanic
Sat 12:05:00 PM 24.4130 -66.0933 159° South 467 537 35,000  Level FlightAware Transoceanic
Sat 12:06:00 PM 24.2914 -66.0420 159° South 467 537 35,000  Level FlightAware Transoceanic
Sat 12:07:00 PM 24.1698 -65.9907 159° South 467 537 35,000  Level FlightAware Transoceanic
Sat 12:08:00 PM 24.0482 -65.9395 159° South 467 537 35,000  Level FlightAware Transoceanic
Sat 12:09:00 PM 23.9266 -65.8884 159° South 467 537 35,000  Level FlightAware Transoceanic
Sat 12:10:00 PM 23.8049 -65.8374 159° South 467 537 35,000  Level FlightAware Transoceanic
Sat 12:11:00 PM 23.6832 -65.7866 159° South 467 537 35,000  Level FlightAware Transoceanic
Sat 12:12:00 PM 23.5615 -65.7357 159° South 467 537 35,000  Level FlightAware Transoceanic
Sat 12:13:00 PM 23.4398 -65.6851 159° South 467 537 35,000  Level FlightAware Transoceanic
Sat 12:14:00 PM 23.3181 -65.6344 159° South 467 537 35,000  Level FlightAware Transoceanic
Sat 12:15:00 PM 23.1964 -65.5839 159° South 467 537 35,000  Level FlightAware Transoceanic
Sat 12:16:00 PM 23.0746 -65.5335 159° South 467 537 35,000  Level FlightAware Transoceanic
Sat 12:17:00 PM 22.9528 -65.4832 159° South 467 537 35,000  Level FlightAware Transoceanic
Sat 12:18:00 PM 22.8311 -65.4329 159° South 467 537 35,000  Level FlightAware Transoceanic
Sat 12:19:00 PM 22.7092 -65.3828 159° South 467 537 35,000  Level FlightAware Transoceanic
Sat 12:20:00 PM 22.5874 -65.3327 159° South 467 537 35,000  Level FlightAware Transoceanic
Sat 12:21:00 PM 22.4656 -65.2827 159° South 467 537 35,000  Level FlightAware Transoceanic
Sat 12:22:00 PM 22.3437 -65.2328 159° South 467 537 35,000  Level FlightAware Transoceanic
Sat 12:22:34 PM 22.1833 -65.2000 166° South 480 552 35,000  Level San Juan Center
Sat 12:23:00 PM 22.2219 -65.1831 159° South 467 537 35,000  Level FlightAware Transoceanic
Sat 12:23:34 PM 22.0667 -65.1500 158° South 470 541 35,000  Level San Juan Center
Sat 12:24:00 PM 22.1000 -65.1333 166° South 467 537 35,000  Level FlightAware Transoceanic
Sat 12:24:34 PM 21.9333 -65.0833 155° Southeast 480 552 35,000  Level San Juan Center
Sat 12:25:00 PM 21.9771 -65.0998 166° South 467 537 35,000  Level FlightAware Transoceanic
Sat 12:25:34 PM 21.8167 -65.0500 165° South 490 564 35,000  Level San Juan Center
Sat 12:26:00 PM 21.8542 -65.0663 166° South 467 537 35,000  Level FlightAware Transoceanic
Sat 12:26:34 PM 21.6833 -65.0167 167° South 480 552 35,000  Level San Juan Center
Sat 12:27:00 PM 21.7313 -65.0329 166° South 467 537 35,000  Level FlightAware Transoceanic
Sat 12:27:35 PM 21.5500 -65.0000 173° South 470 541 35,000  Level San Juan Center
Sat 12:28:35 PM 21.4333 -65.0167 188° South 460 529 35,000  Level San Juan Center
Sat 12:29:35 PM 21.3000 -65.0167 180° South 450 518 35,000  Level San Juan Center
Sat 12:30:36 PM 21.1833 -65.0333 188° South 450 518 35,000  Level San Juan Center
Sat 12:31:36 PM 21.0500 -65.0333 180° South 450 518 35,000  Level San Juan Center
Sat 12:32:36 PM 20.9167 -65.0333 180° South 460 529 35,000  Level San Juan Center
Sat 12:33:37 PM 20.8000 -65.0500 188° South 450 518 35,000  Level San Juan Center
Sat 12:34:37 PM 20.6667 -65.0500 180° South 460 529 35,000  Level San Juan Center
Sat 12:35:37 PM 20.5500 -65.0667 188° South 450 518 35,000 -248 Level San Juan Center
Sat 12:36:38 PM 20.4167 -65.0667 180° South 450 518 34,500 -694 Descending San Juan Center
Sat 12:37:38 PM 20.3000 -65.0667 180° South 450 518 33,600 -1,600 Descending San Juan Center
Sat 12:38:38 PM 20.1667 -65.0833 187° South 450 518 31,300 -2,083 Descending San Juan Center
Sat 12:39:39 PM 20.0333 -65.0833 180° South 460 529 29,400 -2,182 Descending San Juan Center
Sat 12:40:39 PM 19.9000 -65.1000 187° South 480 552 26,900 -2,400 Descending San Juan Center
Sat 12:41:39 PM 19.7833 -65.1000 180° South 460 529 24,600 -2,132 Descending San Juan Center
Sat 12:42:40 PM 19.6500 -65.1000 180° South 440 506 22,600 -2,182 Descending San Juan Center
Sat 12:43:40 PM 19.5333 -65.1167 188° South 410 472 20,200 -2,250 Descending San Juan Center
Sat 12:44:40 PM 19.4333 -65.1167 180° South 400 460 18,100 -1,983 Descending San Juan Center
Sat 12:45:41 PM 19.3167 -65.1167 180° South 370 426 16,200 -2,083 Descending San Juan Center
Sat 12:46:41 PM 19.2167 -65.1333 189° South 370 426 13,900 -2,150 Descending San Juan Center
Sat 12:47:41 PM 19.1167 -65.1333 180° South 350 403 11,900 -1,800 Descending San Juan Center
Sat 12:48:41 PM 19.0167 -65.1333 180° South 330 380 10,300 -1,289 Descending San Juan Center
Sat 12:49:42 PM 18.9333 -65.1333 180° South 290 334 9,300 -843 Descending San Juan Center
Sat 12:50:42 PM 18.8500 -65.1500 191° South 290 334 8,600 -850 Descending San Juan Center
Sat 12:51:42 PM 18.7667 -65.1500 180° South 280 322 7,600 -992 Descending San Juan Center
Sat 12:52:43 PM 18.6833 -65.1500 180° South 290 334 6,600 -942 Descending San Juan Center
Sat 12:53:43 PM 18.6167 -65.1500 180° South 280 322 5,700 -950 Descending San Juan Center
Sat 12:54:43 PM 18.5333 -65.1667 191° South 270 311 4,700 -1,050 Descending San Juan Center
Sat 12:55:43 PM 18.4667 -65.1667 180° South 260 299 3,600 -843 Descending San Juan Center
Sat 12:56:44 PM 18.4000 -65.1667 180° South 250 288 3,000 -595 Descending San Juan Center
Sat 12:57:44 PM 18.3333 -65.1500 167° South 200 230 2,400 -600 Descending San Juan Center

Login

Don't have an account? Register now (free) for customized features, flight alerts, and more!